sensor_id;sensor_type;location;lat;lon;timestamp;P1;durP1;ratioP1;P2;durP2;ratioP2
5981;SDS011;3018;48.730;9.336;2024-02-28T00:00:31;25.05;;;17.63;;
5981;SDS011;3018;48.730;9.336;2024-02-28T00:02:58;24.55;;;18.33;;
5981;SDS011;3018;48.730;9.336;2024-02-28T00:05:24;25.08;;;17.50;;
5981;SDS011;3018;48.730;9.336;2024-02-28T00:07:51;25.30;;;18.08;;
5981;SDS011;3018;48.730;9.336;2024-02-28T00:10:18;26.23;;;18.25;;
5981;SDS011;3018;48.730;9.336;2024-02-28T00:12:44;27.42;;;17.95;;
5981;SDS011;3018;48.730;9.336;2024-02-28T00:15:10;25.33;;;18.02;;
5981;SDS011;3018;48.730;9.336;2024-02-28T00:17:38;26.25;;;18.10;;
5981;SDS011;3018;48.730;9.336;2024-02-28T00:20:07;26.10;;;17.75;;
5981;SDS011;3018;48.730;9.336;2024-02-28T00:22:33;25.67;;;17.65;;
5981;SDS011;3018;48.730;9.336;2024-02-28T00:24:59;25.52;;;18.02;;
5981;SDS011;3018;48.730;9.336;2024-02-28T00:27:26;26.67;;;19.10;;
5981;SDS011;3018;48.730;9.336;2024-02-28T00:29:52;25.45;;;18.83;;
5981;SDS011;3018;48.730;9.336;2024-02-28T00:32:18;25.08;;;17.98;;
5981;SDS011;3018;48.730;9.336;2024-02-28T00:34:45;24.23;;;17.70;;
5981;SDS011;3018;48.730;9.336;2024-02-28T00:37:12;26.00;;;17.83;;
5981;SDS011;3018;48.730;9.336;2024-02-28T00:39:39;25.35;;;18.75;;
5981;SDS011;3018;48.730;9.336;2024-02-28T00:42:05;23.42;;;17.85;;
5981;SDS011;3018;48.730;9.336;2024-02-28T00:44:31;24.70;;;17.58;;
5981;SDS011;3018;48.730;9.336;2024-02-28T00:46:57;23.90;;;17.58;;
5981;SDS011;3018;48.730;9.336;2024-02-28T00:49:24;26.30;;;18.33;;
5981;SDS011;3018;48.730;9.336;2024-02-28T00:51:50;26.83;;;18.42;;
5981;SDS011;3018;48.730;9.336;2024-02-28T00:54:17;26.67;;;17.58;;
5981;SDS011;3018;48.730;9.336;2024-02-28T00:56:44;28.83;;;18.88;;
5981;SDS011;3018;48.730;9.336;2024-02-28T00:59:10;24.65;;;17.50;;
5981;SDS011;3018;48.730;9.336;2024-02-28T01:01:37;23.98;;;18.15;;
5981;SDS011;3018;48.730;9.336;2024-02-28T01:04:04;28.05;;;17.83;;
5981;SDS011;3018;48.730;9.336;2024-02-28T01:06:30;25.67;;;19.30;;
5981;SDS011;3018;48.730;9.336;2024-02-28T01:08:56;27.13;;;18.27;;
5981;SDS011;3018;48.730;9.336;2024-02-28T01:11:24;27.40;;;18.20;;
5981;SDS011;3018;48.730;9.336;2024-02-28T01:13:50;26.50;;;18.38;;
5981;SDS011;3018;48.730;9.336;2024-02-28T01:16:16;24.38;;;18.13;;
5981;SDS011;3018;48.730;9.336;2024-02-28T01:18:42;25.20;;;18.30;;
5981;SDS011;3018;48.730;9.336;2024-02-28T01:21:09;26.00;;;18.42;;
5981;SDS011;3018;48.730;9.336;2024-02-28T01:23:35;25.60;;;18.63;;
5981;SDS011;3018;48.730;9.336;2024-02-28T01:26:01;28.60;;;18.58;;
5981;SDS011;3018;48.730;9.336;2024-02-28T01:28:30;26.60;;;18.05;;
5981;SDS011;3018;48.730;9.336;2024-02-28T01:30:56;28.38;;;19.20;;
5981;SDS011;3018;48.730;9.336;2024-02-28T01:33:23;26.23;;;18.92;;
5981;SDS011;3018;48.730;9.336;2024-02-28T01:35:49;27.80;;;20.00;;
5981;SDS011;3018;48.730;9.336;2024-02-28T01:38:15;29.40;;;18.85;;
5981;SDS011;3018;48.730;9.336;2024-02-28T01:40:44;28.38;;;19.60;;
5981;SDS011;3018;48.730;9.336;2024-02-28T01:43:11;29.20;;;19.50;;
5981;SDS011;3018;48.730;9.336;2024-02-28T01:45:38;29.55;;;19.25;;
5981;SDS011;3018;48.730;9.336;2024-02-28T01:48:05;26.88;;;18.80;;
5981;SDS011;3018;48.730;9.336;2024-02-28T01:50:32;24.63;;;18.45;;
5981;SDS011;3018;48.730;9.336;2024-02-28T01:52:59;26.42;;;19.23;;
5981;SDS011;3018;48.730;9.336;2024-02-28T01:55:25;28.95;;;20.15;;
5981;SDS011;3018;48.730;9.336;2024-02-28T01:57:52;27.08;;;18.92;;
5981;SDS011;3018;48.730;9.336;2024-02-28T02:00:19;26.55;;;18.35;;
5981;SDS011;3018;48.730;9.336;2024-02-28T02:02:46;25.05;;;18.15;;
5981;SDS011;3018;48.730;9.336;2024-02-28T02:05:13;26.85;;;18.42;;
5981;SDS011;3018;48.730;9.336;2024-02-28T02:07:41;28.10;;;18.73;;
5981;SDS011;3018;48.730;9.336;2024-02-28T02:10:08;24.00;;;17.85;;
5981;SDS011;3018;48.730;9.336;2024-02-28T02:12:36;27.25;;;19.02;;
5981;SDS011;3018;48.730;9.336;2024-02-28T02:15:03;25.63;;;17.80;;
5981;SDS011;3018;48.730;9.336;2024-02-28T02:17:29;26.00;;;17.90;;
5981;SDS011;3018;48.730;9.336;2024-02-28T02:19:57;24.63;;;17.45;;
5981;SDS011;3018;48.730;9.336;2024-02-28T02:22:23;26.85;;;18.33;;
5981;SDS011;3018;48.730;9.336;2024-02-28T02:24:54;26.58;;;18.38;;
5981;SDS011;3018;48.730;9.336;2024-02-28T02:27:20;27.02;;;18.88;;
5981;SDS011;3018;48.730;9.336;2024-02-28T02:29:46;25.88;;;18.67;;
5981;SDS011;3018;48.730;9.336;2024-02-28T02:32:13;23.92;;;17.73;;
5981;SDS011;3018;48.730;9.336;2024-02-28T02:34:39;25.38;;;18.33;;
5981;SDS011;3018;48.730;9.336;2024-02-28T02:37:05;25.25;;;18.10;;
5981;SDS011;3018;48.730;9.336;2024-02-28T02:39:33;24.95;;;18.20;;
5981;SDS011;3018;48.730;9.336;2024-02-28T02:42:01;26.50;;;19.60;;
5981;SDS011;3018;48.730;9.336;2024-02-28T02:44:27;26.50;;;18.02;;
5981;SDS011;3018;48.730;9.336;2024-02-28T02:46:53;27.65;;;18.52;;
5981;SDS011;3018;48.730;9.336;2024-02-28T02:49:20;26.40;;;18.85;;
5981;SDS011;3018;48.730;9.336;2024-02-28T02:51:46;24.73;;;17.80;;
5981;SDS011;3018;48.730;9.336;2024-02-28T02:54:12;27.20;;;18.55;;
5981;SDS011;3018;48.730;9.336;2024-02-28T02:56:40;26.13;;;19.50;;
5981;SDS011;3018;48.730;9.336;2024-02-28T02:59:08;27.42;;;18.52;;
5981;SDS011;3018;48.730;9.336;2024-02-28T03:01:34;25.75;;;17.88;;
5981;SDS011;3018;48.730;9.336;2024-02-28T03:04:00;25.13;;;18.58;;
5981;SDS011;3018;48.730;9.336;2024-02-28T03:06:27;26.20;;;18.17;;
5981;SDS011;3018;48.730;9.336;2024-02-28T03:08:53;27.02;;;18.50;;
5981;SDS011;3018;48.730;9.336;2024-02-28T03:11:19;27.17;;;18.98;;
5981;SDS011;3018;48.730;9.336;2024-02-28T03:13:46;28.98;;;19.27;;
5981;SDS011;3018;48.730;9.336;2024-02-28T03:16:13;26.60;;;18.80;;
5981;SDS011;3018;48.730;9.336;2024-02-28T03:18:40;26.48;;;18.67;;
5981;SDS011;3018;48.730;9.336;2024-02-28T03:21:06;24.80;;;18.23;;
5981;SDS011;3018;48.730;9.336;2024-02-28T03:23:32;27.42;;;18.92;;
5981;SDS011;3018;48.730;9.336;2024-02-28T03:26:01;29.20;;;19.10;;
5981;SDS011;3018;48.730;9.336;2024-02-28T03:28:28;29.17;;;19.08;;
5981;SDS011;3018;48.730;9.336;2024-02-28T03:30:54;29.63;;;19.15;;
5981;SDS011;3018;48.730;9.336;2024-02-28T03:33:22;27.77;;;19.55;;
5981;SDS011;3018;48.730;9.336;2024-02-28T03:35:50;28.17;;;19.95;;
5981;SDS011;3018;48.730;9.336;2024-02-28T03:38:16;27.48;;;19.73;;
5981;SDS011;3018;48.730;9.336;2024-02-28T03:40:42;27.60;;;19.15;;
5981;SDS011;3018;48.730;9.336;2024-02-28T03:43:08;24.98;;;18.88;;
5981;SDS011;3018;48.730;9.336;2024-02-28T03:45:36;27.90;;;17.60;;
5981;SDS011;3018;48.730;9.336;2024-02-28T03:48:03;31.05;;;19.25;;
5981;SDS011;3018;48.730;9.336;2024-02-28T03:50:31;28.20;;;17.92;;
5981;SDS011;3018;48.730;9.336;2024-02-28T03:52:57;25.30;;;18.25;;
5981;SDS011;3018;48.730;9.336;2024-02-28T03:55:23;26.55;;;18.10;;
5981;SDS011;3018;48.730;9.336;2024-02-28T03:57:49;27.90;;;18.98;;
5981;SDS011;3018;48.730;9.336;2024-02-28T04:00:17;24.85;;;17.40;;
5981;SDS011;3018;48.730;9.336;2024-02-28T04:02:43;26.80;;;18.50;;
5981;SDS011;3018;48.730;9.336;2024-02-28T04:05:09;26.30;;;18.88;;
5981;SDS011;3018;48.730;9.336;2024-02-28T04:07:37;31.98;;;19.55;;
5981;SDS011;3018;48.730;9.336;2024-02-28T04:10:04;31.83;;;20.38;;
5981;SDS011;3018;48.730;9.336;2024-02-28T04:12:30;29.38;;;20.13;;
5981;SDS011;3018;48.730;9.336;2024-02-28T04:14:58;29.45;;;20.17;;
5981;SDS011;3018;48.730;9.336;2024-02-28T04:17:24;28.52;;;19.48;;
5981;SDS011;3018;48.730;9.336;2024-02-28T04:19:50;27.92;;;19.48;;
5981;SDS011;3018;48.730;9.336;2024-02-28T04:22:16;27.27;;;18.88;;
5981;SDS011;3018;48.730;9.336;2024-02-28T04:24:44;25.52;;;18.88;;
5981;SDS011;3018;48.730;9.336;2024-02-28T04:27:10;27.08;;;19.20;;
5981;SDS011;3018;48.730;9.336;2024-02-28T04:29:37;27.88;;;19.75;;
5981;SDS011;3018;48.730;9.336;2024-02-28T04:32:03;28.88;;;18.67;;
5981;SDS011;3018;48.730;9.336;2024-02-28T04:34:29;30.17;;;19.02;;
5981;SDS011;3018;48.730;9.336;2024-02-28T04:36:56;27.95;;;18.85;;
5981;SDS011;3018;48.730;9.336;2024-02-28T04:39:22;31.85;;;19.48;;
5981;SDS011;3018;48.730;9.336;2024-02-28T04:41:50;28.88;;;20.25;;
5981;SDS011;3018;48.730;9.336;2024-02-28T04:44:16;31.33;;;19.90;;
5981;SDS011;3018;48.730;9.336;2024-02-28T04:46:42;30.13;;;20.52;;
5981;SDS011;3018;48.730;9.336;2024-02-28T04:49:08;30.25;;;20.17;;
5981;SDS011;3018;48.730;9.336;2024-02-28T04:51:34;32.53;;;20.98;;
5981;SDS011;3018;48.730;9.336;2024-02-28T04:54:01;28.35;;;19.88;;
5981;SDS011;3018;48.730;9.336;2024-02-28T04:56:27;33.35;;;21.65;;
5981;SDS011;3018;48.730;9.336;2024-02-28T04:58:55;31.33;;;20.48;;
5981;SDS011;3018;48.730;9.336;2024-02-28T05:01:21;32.40;;;20.48;;
5981;SDS011;3018;48.730;9.336;2024-02-28T05:03:47;33.20;;;20.55;;
5981;SDS011;3018;48.730;9.336;2024-02-28T05:06:13;30.98;;;20.05;;
5981;SDS011;3018;48.730;9.336;2024-02-28T05:08:40;26.63;;;18.42;;
5981;SDS011;3018;48.730;9.336;2024-02-28T05:11:06;25.75;;;18.52;;
5981;SDS011;3018;48.730;9.336;2024-02-28T05:13:32;27.13;;;18.50;;
5981;SDS011;3018;48.730;9.336;2024-02-28T05:16:00;29.48;;;18.60;;
5981;SDS011;3018;48.730;9.336;2024-02-28T05:18:27;30.35;;;20.70;;
5981;SDS011;3018;48.730;9.336;2024-02-28T05:20:53;29.55;;;20.27;;
5981;SDS011;3018;48.730;9.336;2024-02-28T05:23:20;28.05;;;19.38;;
5981;SDS011;3018;48.730;9.336;2024-02-28T05:25:46;27.80;;;19.85;;
5981;SDS011;3018;48.730;9.336;2024-02-28T05:28:12;27.50;;;19.35;;
5981;SDS011;3018;48.730;9.336;2024-02-28T05:30:38;30.70;;;20.75;;
5981;SDS011;3018;48.730;9.336;2024-02-28T05:33:07;29.35;;;20.02;;
5981;SDS011;3018;48.730;9.336;2024-02-28T05:35:33;29.08;;;20.35;;
5981;SDS011;3018;48.730;9.336;2024-02-28T05:38:00;28.08;;;19.63;;
5981;SDS011;3018;48.730;9.336;2024-02-28T05:40:26;29.63;;;20.25;;
5981;SDS011;3018;48.730;9.336;2024-02-28T05:42:52;32.70;;;20.80;;
5981;SDS011;3018;48.730;9.336;2024-02-28T05:45:18;34.53;;;20.38;;
5981;SDS011;3018;48.730;9.336;2024-02-28T05:47:45;30.90;;;19.42;;
5981;SDS011;3018;48.730;9.336;2024-02-28T05:50:12;27.67;;;19.33;;
5981;SDS011;3018;48.730;9.336;2024-02-28T05:52:41;28.35;;;19.55;;
5981;SDS011;3018;48.730;9.336;2024-02-28T05:55:07;31.33;;;19.70;;
5981;SDS011;3018;48.730;9.336;2024-02-28T05:57:34;27.15;;;20.35;;
5981;SDS011;3018;48.730;9.336;2024-02-28T06:00:00;27.35;;;19.27;;
5981;SDS011;3018;48.730;9.336;2024-02-28T06:02:30;27.27;;;18.67;;
5981;SDS011;3018;48.730;9.336;2024-02-28T06:04:56;28.38;;;18.95;;
5981;SDS011;3018;48.730;9.336;2024-02-28T06:07:23;25.63;;;18.73;;
5981;SDS011;3018;48.730;9.336;2024-02-28T06:09:50;26.70;;;19.08;;
5981;SDS011;3018;48.730;9.336;2024-02-28T06:12:16;28.42;;;18.98;;
5981;SDS011;3018;48.730;9.336;2024-02-28T06:14:42;27.52;;;18.77;;
5981;SDS011;3018;48.730;9.336;2024-02-28T06:17:08;28.95;;;18.98;;
5981;SDS011;3018;48.730;9.336;2024-02-28T06:19:34;26.05;;;18.42;;
5981;SDS011;3018;48.730;9.336;2024-02-28T06:22:01;27.98;;;18.08;;
5981;SDS011;3018;48.730;9.336;2024-02-28T06:24:28;28.85;;;19.30;;
5981;SDS011;3018;48.730;9.336;2024-02-28T06:26:54;24.52;;;17.52;;
5981;SDS011;3018;48.730;9.336;2024-02-28T06:29:21;25.50;;;17.67;;
5981;SDS011;3018;48.730;9.336;2024-02-28T06:31:49;25.08;;;17.38;;
5981;SDS011;3018;48.730;9.336;2024-02-28T06:34:16;27.88;;;18.38;;
5981;SDS011;3018;48.730;9.336;2024-02-28T06:36:42;27.55;;;19.20;;
5981;SDS011;3018;48.730;9.336;2024-02-28T06:39:08;27.75;;;18.85;;
5981;SDS011;3018;48.730;9.336;2024-02-28T06:41:36;28.67;;;19.52;;
5981;SDS011;3018;48.730;9.336;2024-02-28T06:44:02;27.25;;;18.58;;
5981;SDS011;3018;48.730;9.336;2024-02-28T06:46:28;27.88;;;19.40;;
5981;SDS011;3018;48.730;9.336;2024-02-28T06:48:54;24.92;;;18.02;;
5981;SDS011;3018;48.730;9.336;2024-02-28T06:51:21;24.45;;;18.38;;
5981;SDS011;3018;48.730;9.336;2024-02-28T06:53:47;28.23;;;18.05;;
5981;SDS011;3018;48.730;9.336;2024-02-28T06:56:13;25.20;;;17.73;;
5981;SDS011;3018;48.730;9.336;2024-02-28T06:58:41;27.55;;;18.48;;
5981;SDS011;3018;48.730;9.336;2024-02-28T07:01:07;26.58;;;18.50;;
5981;SDS011;3018;48.730;9.336;2024-02-28T07:03:33;20.33;;;16.00;;
5981;SDS011;3018;48.730;9.336;2024-02-28T07:05:59;25.08;;;17.48;;
5981;SDS011;3018;48.730;9.336;2024-02-28T07:08:26;24.55;;;17.52;;
5981;SDS011;3018;48.730;9.336;2024-02-28T07:10:52;26.00;;;16.73;;
5981;SDS011;3018;48.730;9.336;2024-02-28T07:13:19;23.73;;;17.50;;
5981;SDS011;3018;48.730;9.336;2024-02-28T07:15:47;25.35;;;18.20;;
5981;SDS011;3018;48.730;9.336;2024-02-28T07:18:13;23.45;;;17.58;;
5981;SDS011;3018;48.730;9.336;2024-02-28T07:20:40;22.15;;;16.90;;
5981;SDS011;3018;48.730;9.336;2024-02-28T07:23:06;26.48;;;17.55;;
5981;SDS011;3018;48.730;9.336;2024-02-28T07:25:32;25.75;;;17.70;;
5981;SDS011;3018;48.730;9.336;2024-02-28T07:27:59;23.52;;;17.83;;
5981;SDS011;3018;48.730;9.336;2024-02-28T07:30:25;27.40;;;18.08;;
5981;SDS011;3018;48.730;9.336;2024-02-28T07:32:52;24.60;;;16.45;;
5981;SDS011;3018;48.730;9.336;2024-02-28T07:35:19;25.67;;;17.45;;
5981;SDS011;3018;48.730;9.336;2024-02-28T07:37:45;24.55;;;17.60;;
5981;SDS011;3018;48.730;9.336;2024-02-28T07:40:12;24.83;;;16.95;;
5981;SDS011;3018;48.730;9.336;2024-02-28T07:42:38;25.05;;;18.15;;
5981;SDS011;3018;48.730;9.336;2024-02-28T07:45:05;25.90;;;17.83;;
5981;SDS011;3018;48.730;9.336;2024-02-28T07:47:33;25.98;;;17.00;;
5981;SDS011;3018;48.730;9.336;2024-02-28T07:50:01;27.98;;;17.75;;
5981;SDS011;3018;48.730;9.336;2024-02-28T07:52:27;24.58;;;16.90;;
5981;SDS011;3018;48.730;9.336;2024-02-28T07:54:53;22.40;;;17.00;;
5981;SDS011;3018;48.730;9.336;2024-02-28T07:57:19;25.33;;;17.42;;
5981;SDS011;3018;48.730;9.336;2024-02-28T07:59:46;22.63;;;17.20;;
5981;SDS011;3018;48.730;9.336;2024-02-28T08:02:12;23.05;;;16.83;;
5981;SDS011;3018;48.730;9.336;2024-02-28T08:04:38;22.52;;;17.33;;
5981;SDS011;3018;48.730;9.336;2024-02-28T08:07:06;23.42;;;17.13;;
5981;SDS011;3018;48.730;9.336;2024-02-28T08:09:32;23.75;;;17.63;;
5981;SDS011;3018;48.730;9.336;2024-02-28T08:11:58;23.63;;;17.75;;
5981;SDS011;3018;48.730;9.336;2024-02-28T08:14:25;23.23;;;17.42;;
5981;SDS011;3018;48.730;9.336;2024-02-28T08:16:51;25.83;;;17.77;;
5981;SDS011;3018;48.730;9.336;2024-02-28T08:19:17;24.10;;;17.20;;
5981;SDS011;3018;48.730;9.336;2024-02-28T08:21:43;25.17;;;17.52;;
5981;SDS011;3018;48.730;9.336;2024-02-28T08:24:11;23.48;;;17.33;;
5981;SDS011;3018;48.730;9.336;2024-02-28T08:26:37;23.90;;;16.20;;
5981;SDS011;3018;48.730;9.336;2024-02-28T08:29:04;21.50;;;16.42;;
5981;SDS011;3018;48.730;9.336;2024-02-28T08:31:30;22.77;;;16.85;;
5981;SDS011;3018;48.730;9.336;2024-02-28T08:33:56;26.20;;;17.55;;
5981;SDS011;3018;48.730;9.336;2024-02-28T08:36:23;22.73;;;16.80;;
5981;SDS011;3018;48.730;9.336;2024-02-28T08:38:49;23.60;;;16.50;;
5981;SDS011;3018;48.730;9.336;2024-02-28T08:41:18;22.10;;;17.35;;
5981;SDS011;3018;48.730;9.336;2024-02-28T08:43:44;19.42;;;15.23;;
5981;SDS011;3018;48.730;9.336;2024-02-28T08:46:13;25.23;;;16.83;;
5981;SDS011;3018;48.730;9.336;2024-02-28T08:48:40;25.48;;;17.45;;
5981;SDS011;3018;48.730;9.336;2024-02-28T08:51:06;22.85;;;16.73;;
5981;SDS011;3018;48.730;9.336;2024-02-28T08:53:32;23.27;;;16.70;;
5981;SDS011;3018;48.730;9.336;2024-02-28T08:55:58;20.45;;;16.13;;
5981;SDS011;3018;48.730;9.336;2024-02-28T08:58:26;24.27;;;16.77;;
5981;SDS011;3018;48.730;9.336;2024-02-28T09:00:52;24.08;;;16.33;;
5981;SDS011;3018;48.730;9.336;2024-02-28T09:03:18;21.98;;;16.08;;
5981;SDS011;3018;48.730;9.336;2024-02-28T09:05:47;24.17;;;17.08;;
5981;SDS011;3018;48.730;9.336;2024-02-28T09:08:13;23.38;;;17.13;;
5981;SDS011;3018;48.730;9.336;2024-02-28T09:10:40;24.25;;;17.08;;
5981;SDS011;3018;48.730;9.336;2024-02-28T09:13:06;23.17;;;16.50;;
5981;SDS011;3018;48.730;9.336;2024-02-28T09:15:34;23.08;;;16.88;;
5981;SDS011;3018;48.730;9.336;2024-02-28T09:18:00;24.08;;;16.98;;
5981;SDS011;3018;48.730;9.336;2024-02-28T09:20:27;21.90;;;16.60;;
5981;SDS011;3018;48.730;9.336;2024-02-28T09:22:53;22.70;;;17.10;;
5981;SDS011;3018;48.730;9.336;2024-02-28T09:25:19;25.33;;;18.13;;
5981;SDS011;3018;48.730;9.336;2024-02-28T09:27:46;20.85;;;16.92;;
5981;SDS011;3018;48.730;9.336;2024-02-28T09:30:12;22.40;;;16.85;;
5981;SDS011;3018;48.730;9.336;2024-02-28T09:32:40;22.83;;;16.42;;
5981;SDS011;3018;48.730;9.336;2024-02-28T09:35:08;22.52;;;16.90;;
5981;SDS011;3018;48.730;9.336;2024-02-28T09:37:36;21.13;;;14.75;;
5981;SDS011;3018;48.730;9.336;2024-02-28T09:40:03;23.25;;;15.38;;
5981;SDS011;3018;48.730;9.336;2024-02-28T09:42:30;22.02;;;16.50;;
5981;SDS011;3018;48.730;9.336;2024-02-28T09:44:56;25.05;;;17.63;;
5981;SDS011;3018;48.730;9.336;2024-02-28T09:47:26;22.02;;;16.60;;
5981;SDS011;3018;48.730;9.336;2024-02-28T09:49:53;20.48;;;16.13;;
5981;SDS011;3018;48.730;9.336;2024-02-28T09:52:20;22.27;;;16.42;;
5981;SDS011;3018;48.730;9.336;2024-02-28T09:54:46;23.30;;;16.83;;
5981;SDS011;3018;48.730;9.336;2024-02-28T09:57:12;22.95;;;16.63;;
5981;SDS011;3018;48.730;9.336;2024-02-28T09:59:39;25.65;;;17.45;;
5981;SDS011;3018;48.730;9.336;2024-02-28T10:02:06;26.50;;;17.15;;
5981;SDS011;3018;48.730;9.336;2024-02-28T10:04:35;24.10;;;16.60;;
5981;SDS011;3018;48.730;9.336;2024-02-28T10:07:11;24.60;;;17.42;;
5981;SDS011;3018;48.730;9.336;2024-02-28T10:09:38;23.30;;;16.90;;
5981;SDS011;3018;48.730;9.336;2024-02-28T10:12:05;25.77;;;17.05;;
5981;SDS011;3018;48.730;9.336;2024-02-28T10:14:31;24.10;;;17.45;;
5981;SDS011;3018;48.730;9.336;2024-02-28T10:16:58;23.00;;;16.92;;
5981;SDS011;3018;48.730;9.336;2024-02-28T10:19:24;23.80;;;16.92;;
5981;SDS011;3018;48.730;9.336;2024-02-28T10:21:50;26.13;;;16.65;;
5981;SDS011;3018;48.730;9.336;2024-02-28T10:24:18;26.40;;;16.98;;
5981;SDS011;3018;48.730;9.336;2024-02-28T10:26:44;25.35;;;17.15;;
5981;SDS011;3018;48.730;9.336;2024-02-28T10:29:13;27.25;;;16.63;;
5981;SDS011;3018;48.730;9.336;2024-02-28T10:31:39;21.35;;;16.40;;
5981;SDS011;3018;48.730;9.336;2024-02-28T10:34:05;25.02;;;17.17;;
5981;SDS011;3018;48.730;9.336;2024-02-28T10:36:33;22.27;;;16.67;;
5981;SDS011;3018;48.730;9.336;2024-02-28T10:38:59;23.38;;;16.48;;
5981;SDS011;3018;48.730;9.336;2024-02-28T10:41:28;23.45;;;15.90;;
5981;SDS011;3018;48.730;9.336;2024-02-28T10:43:54;23.13;;;16.05;;
5981;SDS011;3018;48.730;9.336;2024-02-28T10:46:20;24.67;;;17.30;;
5981;SDS011;3018;48.730;9.336;2024-02-28T10:48:49;27.10;;;17.83;;
5981;SDS011;3018;48.730;9.336;2024-02-28T10:51:16;24.17;;;17.27;;
5981;SDS011;3018;48.730;9.336;2024-02-28T10:53:44;24.52;;;17.20;;
5981;SDS011;3018;48.730;9.336;2024-02-28T10:56:12;27.08;;;18.23;;
5981;SDS011;3018;48.730;9.336;2024-02-28T10:58:48;24.70;;;17.52;;
5981;SDS011;3018;48.730;9.336;2024-02-28T11:01:16;28.40;;;17.77;;
5981;SDS011;3018;48.730;9.336;2024-02-28T11:03:43;24.88;;;17.48;;
5981;SDS011;3018;48.730;9.336;2024-02-28T11:06:16;26.63;;;18.23;;
5981;SDS011;3018;48.730;9.336;2024-02-28T11:08:45;26.60;;;18.02;;
5981;SDS011;3018;48.730;9.336;2024-02-28T11:11:13;26.20;;;18.00;;
5981;SDS011;3018;48.730;9.336;2024-02-28T11:13:39;26.38;;;18.20;;
5981;SDS011;3018;48.730;9.336;2024-02-28T11:16:10;27.45;;;18.92;;
5981;SDS011;3018;48.730;9.336;2024-02-28T11:18:36;29.95;;;18.40;;
5981;SDS011;3018;48.730;9.336;2024-02-28T11:21:14;28.48;;;18.55;;
5981;SDS011;3018;48.730;9.336;2024-02-28T11:23:41;26.85;;;17.92;;
5981;SDS011;3018;48.730;9.336;2024-02-28T11:26:07;23.98;;;16.90;;
5981;SDS011;3018;48.730;9.336;2024-02-28T11:28:33;24.27;;;17.17;;
5981;SDS011;3018;48.730;9.336;2024-02-28T11:31:00;25.13;;;17.50;;
5981;SDS011;3018;48.730;9.336;2024-02-28T11:33:28;26.30;;;17.92;;
5981;SDS011;3018;48.730;9.336;2024-02-28T11:35:55;27.25;;;18.85;;
5981;SDS011;3018;48.730;9.336;2024-02-28T11:38:23;24.52;;;16.92;;
5981;SDS011;3018;48.730;9.336;2024-02-28T11:40:50;25.20;;;17.52;;
5981;SDS011;3018;48.730;9.336;2024-02-28T11:43:16;27.08;;;17.48;;
5981;SDS011;3018;48.730;9.336;2024-02-28T11:45:42;23.25;;;17.13;;
5981;SDS011;3018;48.730;9.336;2024-02-28T11:48:09;27.73;;;17.88;;
5981;SDS011;3018;48.730;9.336;2024-02-28T11:50:38;26.23;;;16.92;;
5981;SDS011;3018;48.730;9.336;2024-02-28T11:53:04;25.75;;;17.00;;
5981;SDS011;3018;48.730;9.336;2024-02-28T11:55:31;27.70;;;17.23;;
5981;SDS011;3018;48.730;9.336;2024-02-28T11:57:58;29.42;;;18.33;;
5981;SDS011;3018;48.730;9.336;2024-02-28T12:00:24;22.23;;;17.00;;
5981;SDS011;3018;48.730;9.336;2024-02-28T12:02:50;28.00;;;17.63;;
5981;SDS011;3018;48.730;9.336;2024-02-28T12:05:19;27.45;;;17.73;;
5981;SDS011;3018;48.730;9.336;2024-02-28T12:07:46;25.13;;;17.40;;
5981;SDS011;3018;48.730;9.336;2024-02-28T12:10:12;26.10;;;17.42;;
5981;SDS011;3018;48.730;9.336;2024-02-28T12:12:39;24.20;;;17.00;;
5981;SDS011;3018;48.730;9.336;2024-02-28T12:15:06;25.83;;;18.60;;
5981;SDS011;3018;48.730;9.336;2024-02-28T12:17:33;26.23;;;18.15;;
5981;SDS011;3018;48.730;9.336;2024-02-28T12:20:01;27.30;;;18.13;;
5981;SDS011;3018;48.730;9.336;2024-02-28T12:22:28;27.27;;;17.02;;
5981;SDS011;3018;48.730;9.336;2024-02-28T12:24:55;27.25;;;17.52;;
5981;SDS011;3018;48.730;9.336;2024-02-28T12:27:22;27.70;;;18.85;;
5981;SDS011;3018;48.730;9.336;2024-02-28T12:29:48;29.15;;;18.90;;
5981;SDS011;3018;48.730;9.336;2024-02-28T12:32:15;31.13;;;18.08;;
5981;SDS011;3018;48.730;9.336;2024-02-28T12:34:42;29.20;;;19.33;;
5981;SDS011;3018;48.730;9.336;2024-02-28T12:37:09;25.00;;;17.88;;
5981;SDS011;3018;48.730;9.336;2024-02-28T12:39:35;26.73;;;18.33;;
5981;SDS011;3018;48.730;9.336;2024-02-28T12:42:03;24.98;;;17.60;;
5981;SDS011;3018;48.730;9.336;2024-02-28T12:44:30;28.00;;;19.00;;
5981;SDS011;3018;48.730;9.336;2024-02-28T12:46:56;29.98;;;19.38;;
5981;SDS011;3018;48.730;9.336;2024-02-28T12:49:22;31.42;;;19.48;;
5981;SDS011;3018;48.730;9.336;2024-02-28T12:51:48;27.20;;;17.77;;
5981;SDS011;3018;48.730;9.336;2024-02-28T12:54:16;29.42;;;18.58;;
5981;SDS011;3018;48.730;9.336;2024-02-28T12:56:43;27.92;;;19.02;;
5981;SDS011;3018;48.730;9.336;2024-02-28T12:59:11;30.05;;;19.05;;
5981;SDS011;3018;48.730;9.336;2024-02-28T13:01:37;29.27;;;18.88;;
5981;SDS011;3018;48.730;9.336;2024-02-28T13:04:03;33.65;;;19.98;;
5981;SDS011;3018;48.730;9.336;2024-02-28T13:06:30;27.40;;;18.55;;
5981;SDS011;3018;48.730;9.336;2024-02-28T13:08:56;32.53;;;18.75;;
5981;SDS011;3018;48.730;9.336;2024-02-28T13:11:23;30.08;;;17.85;;
5981;SDS011;3018;48.730;9.336;2024-02-28T13:13:49;28.30;;;18.20;;
5981;SDS011;3018;48.730;9.336;2024-02-28T13:16:18;28.27;;;18.40;;
5981;SDS011;3018;48.730;9.336;2024-02-28T13:18:44;30.23;;;18.75;;
5981;SDS011;3018;48.730;9.336;2024-02-28T13:21:11;30.90;;;18.88;;
5981;SDS011;3018;48.730;9.336;2024-02-28T13:23:37;30.63;;;18.65;;
5981;SDS011;3018;48.730;9.336;2024-02-28T13:26:04;29.00;;;19.30;;
5981;SDS011;3018;48.730;9.336;2024-02-28T13:28:30;29.00;;;18.63;;
5981;SDS011;3018;48.730;9.336;2024-02-28T13:30:56;30.40;;;19.58;;
5981;SDS011;3018;48.730;9.336;2024-02-28T13:33:24;26.90;;;18.52;;
5981;SDS011;3018;48.730;9.336;2024-02-28T13:35:51;26.65;;;17.70;;
5981;SDS011;3018;48.730;9.336;2024-02-28T13:38:18;30.00;;;18.77;;
5981;SDS011;3018;48.730;9.336;2024-02-28T13:40:44;27.58;;;17.92;;
5981;SDS011;3018;48.730;9.336;2024-02-28T13:43:10;29.83;;;18.40;;
5981;SDS011;3018;48.730;9.336;2024-02-28T13:45:37;28.00;;;18.50;;
5981;SDS011;3018;48.730;9.336;2024-02-28T13:48:14;31.33;;;18.58;;
5981;SDS011;3018;48.730;9.336;2024-02-28T13:50:42;31.70;;;18.42;;
5981;SDS011;3018;48.730;9.336;2024-02-28T13:53:08;31.70;;;19.35;;
5981;SDS011;3018;48.730;9.336;2024-02-28T13:55:34;28.33;;;18.08;;
5981;SDS011;3018;48.730;9.336;2024-02-28T13:58:01;27.42;;;18.10;;
5981;SDS011;3018;48.730;9.336;2024-02-28T14:00:27;30.50;;;17.90;;
5981;SDS011;3018;48.730;9.336;2024-02-28T14:02:53;30.67;;;18.75;;
5981;SDS011;3018;48.730;9.336;2024-02-28T14:05:19;29.60;;;18.50;;
5981;SDS011;3018;48.730;9.336;2024-02-28T14:07:47;29.20;;;19.33;;
5981;SDS011;3018;48.730;9.336;2024-02-28T14:10:14;28.67;;;18.95;;
5981;SDS011;3018;48.730;9.336;2024-02-28T14:12:41;27.25;;;17.75;;
5981;SDS011;3018;48.730;9.336;2024-02-28T14:15:07;27.33;;;17.27;;
5981;SDS011;3018;48.730;9.336;2024-02-28T14:17:36;28.48;;;16.88;;
5981;SDS011;3018;48.730;9.336;2024-02-28T14:20:03;24.23;;;15.73;;
5981;SDS011;3018;48.730;9.336;2024-02-28T14:22:29;28.55;;;16.73;;
5981;SDS011;3018;48.730;9.336;2024-02-28T14:24:57;24.10;;;15.70;;
5981;SDS011;3018;48.730;9.336;2024-02-28T14:27:23;28.30;;;17.33;;
5981;SDS011;3018;48.730;9.336;2024-02-28T14:29:50;27.73;;;17.23;;
5981;SDS011;3018;48.730;9.336;2024-02-28T14:32:16;25.30;;;15.93;;
5981;SDS011;3018;48.730;9.336;2024-02-28T14:34:43;28.70;;;17.45;;
5981;SDS011;3018;48.730;9.336;2024-02-28T14:37:09;26.35;;;17.42;;
5981;SDS011;3018;48.730;9.336;2024-02-28T14:39:35;26.55;;;17.13;;
5981;SDS011;3018;48.730;9.336;2024-02-28T14:42:03;26.05;;;16.20;;
5981;SDS011;3018;48.730;9.336;2024-02-28T14:44:29;25.15;;;16.25;;